createdAt,value
2018-11-03T00:02:20.921Z,0.60
2018-11-03T00:04:49.595Z,0.63
2018-11-03T00:07:18.331Z,0.70
2018-11-03T00:09:46.943Z,0.50
2018-11-03T00:12:15.605Z,0.20
2018-11-03T00:14:44.248Z,0.40
2018-11-03T00:17:12.942Z,0.40
2018-11-03T00:19:41.637Z,0.73
2018-11-03T00:22:10.322Z,0.73
2018-11-03T00:24:39.017Z,0.40
2018-11-03T00:27:07.740Z,0.97
2018-11-03T00:29:36.381Z,0.50
2018-11-03T00:32:05.076Z,0.90
2018-11-03T00:34:33.713Z,1.23
2018-11-03T00:37:02.357Z,1.23
2018-11-03T00:39:31.041Z,2.97
2018-11-03T00:41:59.724Z,2.30
2018-11-03T00:44:28.425Z,1.77
2018-11-03T00:46:57.084Z,0.47
2018-11-03T00:49:25.752Z,1.07
2018-11-03T00:51:54.445Z,0.60
2018-11-03T00:54:23.098Z,0.60
2018-11-03T00:56:51.734Z,1.10
2018-11-03T00:59:20.393Z,0.60
2018-11-03T01:01:49.007Z,0.53
2018-11-03T01:04:17.672Z,0.50
2018-11-03T01:06:46.301Z,2.33
2018-11-03T01:09:15.022Z,0.77
2018-11-03T01:11:43.656Z,0.77
2018-11-03T01:14:12.351Z,3.43
2018-11-03T01:16:40.993Z,1.17
2018-11-03T01:19:09.664Z,2.17
2018-11-03T01:21:38.306Z,1.70
2018-11-03T01:24:07.556Z,1.47
2018-11-03T01:26:36.297Z,2.60
2018-11-03T01:29:05.151Z,1.87
2018-11-03T01:31:33.784Z,1.17
2018-11-03T01:34:02.448Z,0.80
2018-11-03T01:36:31.112Z,1.00
2018-11-03T01:39:00.701Z,2.50
2018-11-03T01:41:29.365Z,1.17
2018-11-03T01:43:58.018Z,1.43
2018-11-03T01:46:26.663Z,2.37
2018-11-03T01:48:55.304Z,1.10
2018-11-03T01:51:23.973Z,1.63
2018-11-03T01:53:52.601Z,1.20
2018-11-03T01:56:21.311Z,1.50
2018-11-03T01:58:50.235Z,1.20
2018-11-03T02:01:18.922Z,2.07
2018-11-03T02:03:47.580Z,1.13
2018-11-03T02:06:16.261Z,1.90
2018-11-03T02:08:45.056Z,1.57
2018-11-03T02:11:13.715Z,1.97
2018-11-03T02:13:42.407Z,1.40
2018-11-03T02:16:11.048Z,1.10
2018-11-03T02:18:39.689Z,1.23
2018-11-03T02:21:08.335Z,1.53
2018-11-03T02:23:36.980Z,1.90
2018-11-03T02:26:05.914Z,3.20
2018-11-03T02:28:34.517Z,0.53
2018-11-03T02:31:03.169Z,1.20
2018-11-03T02:33:31.812Z,0.77
2018-11-03T02:36:00.484Z,0.67
2018-11-03T02:38:29.268Z,0.67
2018-11-03T02:40:57.919Z,1.00
2018-11-03T02:43:26.574Z,1.03
2018-11-03T02:45:55.244Z,0.77
2018-11-03T02:48:23.963Z,1.03
2018-11-03T02:50:52.596Z,1.33
2018-11-03T02:53:21.241Z,0.73
2018-11-03T02:55:49.888Z,2.20
2018-11-03T02:58:18.568Z,0.83
2018-11-03T03:00:47.220Z,0.60
2018-11-03T03:03:15.856Z,0.60
2018-11-03T03:05:44.557Z,1.90
2018-11-03T03:08:13.196Z,1.33
2018-11-03T03:10:41.918Z,0.53
2018-11-03T03:13:10.577Z,1.30
2018-11-03T03:15:39.209Z,0.40
2018-11-03T03:18:07.992Z,2.03
2018-11-03T03:20:36.635Z,0.60
2018-11-03T03:23:05.347Z,0.50
2018-11-03T03:25:33.970Z,0.90
2018-11-03T03:28:02.774Z,0.80
2018-11-03T03:30:31.447Z,0.70
2018-11-03T03:33:00.084Z,0.90
2018-11-03T03:35:28.724Z,1.33
2018-11-03T03:37:57.478Z,0.97
2018-11-03T03:40:26.136Z,0.70
2018-11-03T03:42:55.176Z,0.93
2018-11-03T03:45:23.816Z,0.40
2018-11-03T03:47:52.487Z,0.90
2018-11-03T03:50:21.166Z,1.17
2018-11-03T03:52:49.829Z,0.60
2018-11-03T03:55:18.502Z,2.30
2018-11-03T03:57:47.157Z,3.30
2018-11-03T04:00:15.824Z,0.80
2018-11-03T04:02:44.475Z,0.60
2018-11-03T04:05:13.151Z,1.00
2018-11-03T04:07:41.758Z,1.13
2018-11-03T04:10:10.587Z,0.73
2018-11-03T04:12:39.316Z,0.87
2018-11-03T04:15:08.219Z,1.00
2018-11-03T04:17:37.021Z,0.87
2018-11-03T04:20:06.601Z,1.00
2018-11-03T04:22:35.245Z,0.67
2018-11-03T04:25:03.984Z,4.60
2018-11-03T04:27:32.637Z,0.67
2018-11-03T04:30:01.276Z,1.00
2018-11-03T04:32:29.919Z,1.80
2018-11-03T04:34:58.581Z,2.33
2018-11-03T04:37:27.304Z,0.77
2018-11-03T04:39:55.929Z,0.80
2018-11-03T04:42:24.589Z,1.73
2018-11-03T04:44:53.232Z,2.53
2018-11-03T04:47:21.843Z,4.63
2018-11-03T04:49:50.468Z,3.67
2018-11-03T04:52:19.101Z,0.70
2018-11-03T04:54:47.768Z,0.40
2018-11-03T04:57:16.454Z,0.83
2018-11-03T04:59:45.148Z,0.70
2018-11-03T05:02:13.913Z,1.07
2018-11-03T05:04:42.600Z,1.37
2018-11-03T05:07:11.269Z,3.20
2018-11-03T05:09:39.960Z,2.23
2018-11-03T05:12:08.601Z,2.23
2018-11-03T05:14:37.235Z,1.10
2018-11-03T05:17:06.456Z,0.43
2018-11-03T05:19:35.105Z,2.53
2018-11-03T05:22:03.813Z,0.70
2018-11-03T05:24:32.439Z,0.67
2018-11-03T05:27:01.128Z,0.50
2018-11-03T05:29:29.814Z,0.60
2018-11-03T05:31:58.496Z,0.97
2018-11-03T05:34:27.116Z,1.07
2018-11-03T05:36:55.764Z,0.47
2018-11-03T05:39:24.444Z,0.70
2018-11-03T05:41:53.095Z,0.50
2018-11-03T05:44:21.768Z,0.40
2018-11-03T05:46:50.456Z,4.33
2018-11-03T05:49:19.100Z,0.90
2018-11-03T05:51:47.724Z,1.90
2018-11-03T05:54:16.369Z,1.00
2018-11-03T05:56:45.038Z,1.07
2018-11-03T05:59:13.712Z,2.17
2018-11-03T06:01:42.373Z,1.80
2018-11-03T06:04:11.025Z,0.57
2018-11-03T06:06:39.664Z,1.90
2018-11-03T06:09:09.532Z,2.17
2018-11-03T06:11:38.203Z,1.80
2018-11-03T06:14:07.004Z,2.77
2018-11-03T06:16:35.656Z,0.83
2018-11-03T06:19:04.345Z,0.40
2018-11-03T06:21:32.970Z,0.60
2018-11-03T06:24:01.620Z,1.87
2018-11-03T06:26:30.256Z,0.63
2018-11-03T06:28:58.908Z,0.30
2018-11-03T06:31:27.571Z,2.07
2018-11-03T06:33:56.216Z,0.83
2018-11-03T06:36:24.925Z,0.60
2018-11-03T06:38:53.602Z,0.67
2018-11-03T06:41:22.299Z,1.33
2018-11-03T06:43:51.253Z,0.40
2018-11-03T06:46:19.953Z,4.23
2018-11-03T06:48:48.600Z,0.90
2018-11-03T06:51:17.228Z,0.60
2018-11-03T06:53:45.881Z,1.20
2018-11-03T06:56:14.567Z,0.73
2018-11-03T06:58:43.202Z,0.90
2018-11-03T07:01:12.121Z,0.90
2018-11-03T07:03:40.773Z,1.57
2018-11-03T07:06:09.461Z,1.47
2018-11-03T07:08:38.091Z,0.70
2018-11-03T07:11:06.777Z,2.17
2018-11-03T07:13:35.417Z,0.50
2018-11-03T07:16:04.229Z,1.00
2018-11-03T07:18:32.895Z,1.53
2018-11-03T07:21:01.579Z,1.07
2018-11-03T07:23:30.216Z,0.53
2018-11-03T07:25:58.848Z,3.70
2018-11-03T07:28:27.520Z,2.03
2018-11-03T07:30:56.171Z,7.97
2018-11-03T07:33:24.813Z,2.23
2018-11-03T07:35:53.408Z,0.87
2018-11-03T07:38:22.517Z,2.67
2018-11-03T07:40:51.190Z,4.80
2018-11-03T07:43:19.793Z,3.67
2018-11-03T07:45:48.436Z,1.73
2018-11-03T07:48:17.137Z,0.57
2018-11-03T07:50:45.677Z,0.87
2018-11-03T07:53:14.308Z,1.63
2018-11-03T07:55:42.950Z,0.30
2018-11-03T07:58:11.567Z,3.00
2018-11-03T08:00:40.326Z,0.80
2018-11-03T08:03:08.832Z,1.23
2018-11-03T08:05:37.475Z,1.33
2018-11-03T08:08:06.628Z,0.40
2018-11-03T08:10:35.248Z,0.40
2018-11-03T08:13:03.930Z,0.70
2018-11-03T08:15:32.628Z,0.60
2018-11-03T08:18:01.232Z,0.40
2018-11-03T08:20:29.836Z,0.67
2018-11-03T08:22:58.448Z,0.50
2018-11-03T08:25:27.108Z,4.77
2018-11-03T08:27:55.927Z,1.70
2018-11-03T08:30:24.530Z,1.70
2018-11-03T08:32:53.148Z,3.93
2018-11-03T08:35:21.764Z,4.90
2018-11-03T08:37:50.416Z,2.17
2018-11-03T08:40:19.096Z,1.83
2018-11-03T08:42:47.748Z,0.60
2018-11-03T08:45:16.400Z,1.33
2018-11-03T08:47:45.008Z,1.93
2018-11-03T08:50:13.683Z,1.57
2018-11-03T08:52:42.497Z,1.00
2018-11-03T08:55:12.352Z,0.87
2018-11-03T08:57:41.112Z,0.40
2018-11-03T09:00:11.938Z,1.80
2018-11-03T09:02:41.112Z,0.77
2018-11-03T09:05:10.477Z,0.70
2018-11-03T09:07:39.508Z,2.00
2018-11-03T09:10:10.750Z,1.83
2018-11-03T09:12:39.356Z,0.70
2018-11-03T09:15:10.184Z,3.97
2018-11-03T09:17:39.580Z,0.87
2018-11-03T09:20:09.488Z,0.70
2018-11-03T09:22:38.990Z,1.10
2018-11-03T09:25:10.140Z,0.80
2018-11-03T09:27:39.543Z,1.33
2018-11-03T09:30:10.493Z,2.17
2018-11-03T09:32:39.216Z,2.40
2018-11-03T09:35:08.900Z,1.73
2018-11-03T09:37:37.820Z,0.87
2018-11-03T09:40:08.381Z,1.70
2018-11-03T09:42:37.056Z,1.43
2018-11-03T09:45:06.570Z,1.27
2018-11-03T09:47:35.160Z,0.90
2018-11-03T09:50:03.931Z,1.80
2018-11-03T09:52:32.561Z,0.87
2018-11-03T09:55:01.201Z,2.20
2018-11-03T09:57:29.795Z,1.50
2018-11-03T09:59:58.439Z,2.90
2018-11-03T10:02:27.129Z,1.50
2018-11-03T10:04:55.744Z,1.37
2018-11-03T10:07:24.435Z,2.63
2018-11-03T10:09:53.105Z,0.83
2018-11-03T10:12:21.792Z,1.73
2018-11-03T10:14:50.442Z,1.73
2018-11-03T10:17:19.112Z,1.33
2018-11-03T10:19:47.789Z,1.63
2018-11-03T10:22:16.547Z,2.00
2018-11-03T10:24:45.285Z,3.17
2018-11-03T10:27:13.948Z,1.53
2018-11-03T10:29:42.616Z,1.40
2018-11-03T10:32:11.269Z,0.97
2018-11-03T10:34:39.937Z,1.80
2018-11-03T10:37:08.627Z,1.70
2018-11-03T10:39:37.308Z,2.80
2018-11-03T10:42:06.029Z,4.03
2018-11-03T10:44:34.737Z,1.53
2018-11-03T10:47:03.460Z,1.00
2018-11-03T10:49:32.242Z,1.10
2018-11-03T10:52:00.937Z,1.50
2018-11-03T10:54:29.584Z,1.70
2018-11-03T10:56:58.239Z,1.83
2018-11-03T10:59:26.888Z,2.07
2018-11-03T11:02:00.961Z,1.20
2018-11-03T11:04:35.086Z,2.13
2018-11-03T11:07:09.206Z,2.63
2018-11-03T11:09:43.052Z,1.93
2018-11-03T11:12:16.195Z,1.10
2018-11-03T11:14:44.942Z,2.03
2018-11-03T11:17:13.610Z,2.47
2018-11-03T11:19:42.347Z,1.67
2018-11-03T11:22:11.012Z,1.70
2018-11-03T11:24:39.719Z,2.17
2018-11-03T11:27:08.450Z,1.53
2018-11-03T11:29:38.020Z,1.50
2018-11-03T11:32:06.993Z,1.20
2018-11-03T11:34:35.793Z,2.33
2018-11-03T11:37:04.537Z,2.33
2018-11-03T11:39:33.234Z,2.27
2018-11-03T11:42:01.898Z,1.27
2018-11-03T11:44:30.529Z,2.27
2018-11-03T11:46:59.163Z,2.10
2018-11-03T11:49:27.840Z,1.50
2018-11-03T11:51:56.512Z,1.20
2018-11-03T11:54:25.108Z,3.60
2018-11-03T11:56:53.740Z,4.73
2018-11-03T11:59:22.358Z,3.23
2018-11-03T12:01:51.007Z,2.20
2018-11-03T12:04:19.657Z,1.70
2018-11-03T12:06:48.340Z,2.70
2018-11-03T12:09:17.120Z,3.60
2018-11-03T12:11:46.277Z,5.30
2018-11-03T12:14:14.901Z,1.63
2018-11-03T12:16:44.181Z,1.97
2018-11-03T12:19:12.799Z,2.30
2018-11-03T12:21:41.408Z,2.00
2018-11-03T12:24:10.300Z,1.73
2018-11-03T12:26:39.232Z,1.03
2018-11-03T12:29:08.161Z,1.77
2018-11-03T12:31:36.785Z,1.77
2018-11-03T12:34:05.727Z,1.00
2018-11-03T12:36:34.332Z,1.33
2018-11-03T12:39:04.045Z,1.57
2018-11-03T12:41:32.805Z,1.50
2018-11-03T12:44:01.513Z,2.13
2018-11-03T12:46:30.128Z,1.43
2018-11-03T12:48:58.784Z,1.27
2018-11-03T12:51:27.460Z,2.10
2018-11-03T12:53:56.076Z,4.30
2018-11-03T12:56:24.676Z,1.93
2018-11-03T12:58:53.279Z,1.63
2018-11-03T13:01:21.913Z,3.00
2018-11-03T13:03:50.556Z,0.97
2018-11-03T13:06:19.168Z,1.67
2018-11-03T13:08:47.829Z,2.27
2018-11-03T13:11:16.441Z,1.90
2018-11-03T13:13:45.052Z,1.43
2018-11-03T13:16:13.657Z,1.70
2018-11-03T13:18:42.249Z,1.50
2018-11-03T13:21:11.458Z,1.27
2018-11-03T13:23:40.045Z,2.67
2018-11-03T13:26:09.183Z,2.33
2018-11-03T13:28:37.828Z,2.50
2018-11-03T13:31:07.717Z,1.50
2018-11-03T13:33:36.464Z,1.40
2018-11-03T13:36:05.380Z,1.20
2018-11-03T13:38:34.241Z,1.60
2018-11-03T13:41:03.042Z,1.90
2018-11-03T13:43:31.656Z,2.63
2018-11-03T13:46:00.297Z,1.17
2018-11-03T13:48:28.950Z,1.27
2018-11-03T13:50:57.588Z,1.00
2018-11-03T13:53:26.191Z,0.70
2018-11-03T13:55:54.804Z,4.23
2018-11-03T13:58:24.529Z,1.33
2018-11-03T14:00:53.176Z,4.20
2018-11-03T14:03:21.988Z,2.00
2018-11-03T14:05:54.011Z,1.23
2018-11-03T14:08:23.176Z,1.03
2018-11-03T14:10:52.226Z,1.47
2018-11-03T14:13:20.976Z,0.90
2018-11-03T14:15:49.864Z,0.93
2018-11-03T14:18:18.842Z,1.87
2018-11-03T14:20:47.461Z,2.03
2018-11-03T14:23:17.248Z,1.20
2018-11-03T14:25:47.431Z,1.80
2018-11-03T14:28:17.453Z,0.73
2018-11-03T14:30:46.196Z,1.43
2018-11-03T14:33:15.173Z,1.17
2018-11-03T14:35:44.684Z,1.60
2018-11-03T14:38:15.479Z,1.30
2018-11-03T14:40:44.200Z,1.87
2018-11-03T14:43:15.117Z,5.13
2018-11-03T14:45:44.825Z,1.97
2018-11-03T14:48:13.452Z,2.30
2018-11-03T14:50:42.505Z,3.43
2018-11-03T14:53:11.492Z,6.23
2018-11-03T14:55:40.120Z,3.10
2018-11-03T14:58:09.053Z,2.33
2018-11-03T15:00:38.847Z,3.63
2018-11-03T15:03:08.229Z,3.07
2018-11-03T15:05:37.740Z,2.50
2018-11-03T15:08:06.804Z,1.80
2018-11-03T15:10:35.405Z,1.70
2018-11-03T15:13:04.284Z,1.40
2018-11-03T15:15:32.955Z,0.87
2018-11-03T15:18:01.999Z,1.90
2018-11-03T15:20:30.863Z,3.73
2018-11-03T15:22:59.534Z,2.97
2018-11-03T15:25:28.504Z,7.63
2018-11-03T15:27:57.112Z,1.37
2018-11-03T15:30:25.716Z,1.00
2018-11-03T15:32:54.308Z,3.10
2018-11-03T15:35:22.919Z,2.27
2018-11-03T15:37:51.532Z,2.70
2018-11-03T15:40:20.144Z,2.03
2018-11-03T15:42:48.767Z,2.30
2018-11-03T15:45:17.932Z,1.73
2018-11-03T15:47:47.175Z,1.33
2018-11-03T15:50:16.547Z,2.67
2018-11-03T15:52:45.652Z,3.30
2018-11-03T15:55:14.512Z,2.73
2018-11-03T15:57:43.307Z,2.53
2018-11-03T16:00:21.019Z,1.37
2018-11-03T16:02:49.890Z,1.10
2018-11-03T16:05:18.495Z,1.40
2018-11-03T16:07:47.684Z,1.20
2018-11-03T16:10:16.301Z,2.80
2018-11-03T16:12:44.983Z,1.47
2018-11-03T16:15:13.829Z,1.00
2018-11-03T16:17:42.884Z,2.87
2018-11-03T16:20:12.552Z,1.20
2018-11-03T16:22:41.595Z,1.70
2018-11-03T16:25:10.523Z,4.10
2018-11-03T16:27:39.925Z,4.00
2018-11-03T16:30:11.872Z,4.47
2018-11-03T16:32:41.079Z,3.33
2018-11-03T16:35:09.504Z,2.40
2018-11-03T16:37:38.984Z,2.20
2018-11-03T16:40:09.285Z,2.90
2018-11-03T16:42:38.239Z,4.57
2018-11-03T16:45:08.295Z,6.47
2018-11-03T16:47:37.735Z,2.77
2018-11-03T16:50:07.664Z,3.22
2018-11-03T16:52:36.374Z,2.90
2018-11-03T16:55:05.768Z,4.40
2018-11-03T16:57:34.543Z,4.27
2018-11-03T17:00:03.360Z,6.27
2018-11-03T17:02:31.961Z,6.13
2018-11-03T17:05:00.752Z,9.00
2018-11-03T17:07:29.360Z,11.07
2018-11-03T17:09:57.968Z,13.67
2018-11-03T17:12:26.635Z,11.30
2018-11-03T17:14:55.316Z,6.57
2018-11-03T17:17:23.955Z,3.93
2018-11-03T17:19:54.069Z,4.97
2018-11-03T17:22:22.831Z,4.93
2018-11-03T17:24:51.462Z,4.40
2018-11-03T17:27:20.148Z,6.53
2018-11-03T17:29:48.844Z,3.40
2018-11-03T17:32:17.472Z,3.70
2018-11-03T17:34:46.147Z,7.00
2018-11-03T17:37:14.937Z,6.53
2018-11-03T17:39:43.725Z,5.83
2018-11-03T17:42:12.381Z,4.03
2018-11-03T17:44:41.193Z,3.37
2018-11-03T17:47:09.862Z,5.20
2018-11-03T17:49:38.512Z,5.53
2018-11-03T17:52:07.200Z,6.07
2018-11-03T17:54:35.938Z,6.77
2018-11-03T17:57:04.661Z,6.87
2018-11-03T17:59:33.314Z,6.53
2018-11-03T18:02:01.965Z,6.87
2018-11-03T18:04:30.654Z,7.67
2018-11-03T18:06:59.313Z,7.97
2018-11-03T18:09:28.212Z,4.77
2018-11-03T18:11:56.856Z,7.57
2018-11-03T18:14:25.562Z,5.97
2018-11-03T18:16:54.229Z,7.43
2018-11-03T18:19:24.484Z,5.67
2018-11-03T18:21:53.249Z,5.57
2018-11-03T18:24:22.063Z,6.50
2018-11-03T18:26:50.683Z,7.67
2018-11-03T18:29:19.320Z,6.60
2018-11-03T18:31:48.008Z,5.80
2018-11-03T18:34:16.693Z,6.50
2018-11-03T18:36:45.369Z,5.70
2018-11-03T18:39:14.041Z,5.53
2018-11-03T18:41:42.706Z,7.77
2018-11-03T18:44:12.576Z,5.90
2018-11-03T18:46:41.401Z,6.03
2018-11-03T18:49:10.017Z,4.43
2018-11-03T18:51:38.999Z,5.80
2018-11-03T18:54:07.695Z,6.77
2018-11-03T18:56:36.906Z,6.47
2018-11-03T18:59:06.100Z,7.47
2018-11-03T19:01:35.846Z,8.73
2018-11-03T19:04:04.594Z,5.77
2018-11-03T19:06:33.860Z,6.20
2018-11-03T19:09:03.078Z,7.03
2018-11-03T19:11:32.070Z,6.97
2018-11-03T19:14:00.761Z,5.47
2018-11-03T19:16:29.406Z,5.70
2018-11-03T19:18:58.800Z,5.00
2018-11-03T19:21:27.639Z,4.27
2018-11-03T19:23:57.251Z,4.77
2018-11-03T19:26:26.016Z,4.90
2018-11-03T19:28:56.566Z,4.00
2018-11-03T19:31:26.591Z,4.07
2018-11-03T19:33:56.231Z,6.93
2018-11-03T19:36:26.126Z,6.20
2018-11-03T19:38:54.852Z,5.47
2018-11-03T19:41:23.830Z,7.07
2018-11-03T19:43:52.576Z,7.33
2018-11-03T19:46:21.245Z,5.23
2018-11-03T19:48:51.946Z,6.77
2018-11-03T19:51:21.126Z,5.70
2018-11-03T19:53:49.936Z,5.17
2018-11-03T19:56:19.082Z,5.13
2018-11-03T19:58:48.109Z,7.27
2018-11-03T20:01:18.451Z,5.77
2018-11-03T20:03:47.598Z,6.40
2018-11-03T20:06:16.992Z,5.67
2018-11-03T20:08:46.397Z,5.43
2018-11-03T20:11:15.057Z,6.37
2018-11-03T20:13:44.768Z,7.17
2018-11-03T20:16:13.839Z,5.27
2018-11-03T20:18:44.139Z,6.63
2018-11-03T20:21:13.629Z,6.80
2018-11-03T20:23:42.985Z,8.03
2018-11-03T20:26:11.985Z,5.87
2018-11-03T20:28:40.968Z,6.30
2018-11-03T20:31:10.017Z,6.80
2018-11-03T20:33:38.829Z,5.60
2018-11-03T20:36:08.365Z,7.70
2018-11-03T20:38:37.061Z,5.57
2018-11-03T20:41:05.936Z,9.77
2018-11-03T20:43:34.696Z,5.80
2018-11-03T20:46:03.659Z,9.50
2018-11-03T20:48:32.710Z,5.93
2018-11-03T20:51:10.947Z,5.23
2018-11-03T20:53:41.473Z,6.73
2018-11-03T20:56:12.653Z,8.30
2018-11-03T20:58:41.737Z,5.30
2018-11-03T21:01:11.288Z,6.73
2018-11-03T21:03:41.016Z,6.13
2018-11-03T21:06:11.330Z,6.40
2018-11-03T21:08:40.810Z,7.60
2018-11-03T21:11:09.632Z,6.13
2018-11-03T21:13:39.481Z,6.40
2018-11-03T21:16:08.669Z,6.97
2018-11-03T21:18:39.258Z,6.87
2018-11-03T21:21:08.053Z,7.00
2018-11-03T21:23:36.711Z,7.13
2018-11-03T21:26:09.584Z,8.03
2018-11-03T21:28:39.656Z,6.90
2018-11-03T21:31:09.328Z,7.83
2018-11-03T21:33:38.404Z,7.00
2018-11-03T21:36:08.358Z,8.13
2018-11-03T21:38:38.412Z,9.17
2018-11-03T21:41:09.844Z,7.90
2018-11-03T21:43:40.220Z,8.70
2018-11-03T21:46:10.351Z,7.73
2018-11-03T21:48:39.139Z,7.50
2018-11-03T21:51:08.954Z,7.53
2018-11-03T21:53:42.811Z,8.87
2018-11-03T21:56:12.465Z,8.30
2018-11-03T21:58:42.111Z,8.13
2018-11-03T22:01:11.876Z,8.03
2018-11-03T22:03:41.335Z,8.07
2018-11-03T22:06:10.470Z,9.80
2018-11-03T22:08:40.037Z,10.17
2018-11-03T22:11:09.185Z,8.47
2018-11-03T22:13:38.787Z,8.23
2018-11-03T22:16:08.051Z,8.47
2018-11-03T22:18:37.256Z,8.37
2018-11-03T22:21:12.572Z,8.73
2018-11-03T22:23:48.609Z,7.00
2018-11-03T22:26:17.836Z,7.83
2018-11-03T22:28:47.042Z,8.53
2018-11-03T22:31:17.156Z,7.03
2018-11-03T22:33:45.848Z,7.93
2018-11-03T22:36:16.101Z,8.10
2018-11-03T22:38:46.283Z,8.60
2018-11-03T22:41:17.643Z,7.97
2018-11-03T22:43:50.108Z,12.57
2018-11-03T22:46:21.689Z,10.90
2018-11-03T22:48:53.456Z,7.50
2018-11-03T22:51:25.672Z,9.00
2018-11-03T22:53:58.466Z,9.00
2018-11-03T22:56:30.788Z,8.73
2018-11-03T22:59:05.139Z,10.00
2018-11-03T23:01:37.908Z,8.80
2018-11-03T23:04:10.145Z,8.30
2018-11-03T23:06:44.027Z,7.77
2018-11-03T23:09:17.148Z,7.73
2018-11-03T23:11:50.521Z,7.63
2018-11-03T23:14:23.964Z,8.23
2018-11-03T23:16:55.140Z,8.13
2018-11-03T23:19:29.714Z,8.30
2018-11-03T23:21:58.658Z,11.27
2018-11-03T23:24:27.339Z,7.57
2018-11-03T23:26:56.018Z,8.07
2018-11-03T23:29:24.736Z,7.07
2018-11-03T23:31:53.349Z,7.37
2018-11-03T23:34:22.004Z,8.53
2018-11-03T23:36:50.669Z,6.87
2018-11-03T23:39:19.310Z,6.33
2018-11-03T23:41:47.976Z,8.40
2018-11-03T23:44:16.624Z,7.50
2018-11-03T23:46:45.308Z,7.47
2018-11-03T23:49:14.035Z,7.13
2018-11-03T23:51:42.666Z,7.00
2018-11-03T23:54:11.348Z,6.80
2018-11-03T23:56:39.982Z,8.17
2018-11-03T23:59:08.648Z,7.43
